createdAt,value
2023-04-25T00:00:28.535Z,4.03
2023-04-25T00:05:29.865Z,4.20
2023-04-25T00:10:26.775Z,3.45
2023-04-25T00:15:24.650Z,3.50
2023-04-25T00:20:22.334Z,5.65
2023-04-25T00:25:20.118Z,3.63
2023-04-25T00:30:17.011Z,3.65
2023-04-25T00:35:13.848Z,4.60
2023-04-25T00:40:11.410Z,3.38
2023-04-25T00:45:13.598Z,4.05
2023-04-25T00:50:10.824Z,4.07
2023-04-25T00:55:09.520Z,4.63
2023-04-25T01:00:10.211Z,4.22
2023-04-25T01:05:07.326Z,6.13
2023-04-25T01:10:05.231Z,5.47
2023-04-25T01:15:02.282Z,5.53
2023-04-25T01:20:00.412Z,3.78
2023-04-25T01:24:58.312Z,3.67
2023-04-25T01:29:56.108Z,4.80
2023-04-25T01:34:53.278Z,3.90
2023-04-25T01:39:50.590Z,5.43
2023-04-25T01:44:48.260Z,4.00
2023-04-25T01:49:45.250Z,5.45
2023-04-25T01:54:45.133Z,5.40
2023-04-25T01:59:44.692Z,4.07
2023-04-25T02:05:08.859Z,5.75
2023-04-25T02:10:10.415Z,3.97
2023-04-25T02:15:19.408Z,5.55
2023-04-25T02:20:24.530Z,5.25
2023-04-25T02:25:21.855Z,4.65
2023-04-25T02:30:18.802Z,5.72
2023-04-25T02:35:16.120Z,6.20
2023-04-25T02:40:14.034Z,6.55
2023-04-25T02:45:11.246Z,5.68
2023-04-25T02:50:08.724Z,5.70
2023-04-25T02:55:07.044Z,4.70
2023-04-25T03:00:08.772Z,5.10
2023-04-25T03:05:06.328Z,4.88
2023-04-25T03:10:07.310Z,4.78
2023-04-25T03:15:07.529Z,4.68
2023-04-25T03:20:05.760Z,5.05
2023-04-25T03:25:03.482Z,5.22
2023-04-25T03:30:00.339Z,4.90
2023-04-25T03:34:58.056Z,6.78
2023-04-25T03:39:57.265Z,5.18
2023-04-25T03:44:59.817Z,5.00
2023-04-25T03:49:57.599Z,5.32
2023-04-25T03:54:55.041Z,7.55
2023-04-25T03:59:55.048Z,9.63
2023-04-25T04:04:53.195Z,7.40
2023-04-25T04:09:51.350Z,7.10
2023-04-25T04:14:57.316Z,6.30
2023-04-25T04:19:54.765Z,12.73
2023-04-25T04:24:55.973Z,5.60
2023-04-25T04:30:13.224Z,7.53
2023-04-25T04:35:25.532Z,9.55
2023-04-25T04:40:23.734Z,15.50
2023-04-25T04:45:46.795Z,7.95
2023-04-25T04:50:52.978Z,11.10
2023-04-25T05:01:20.021Z,8.20
2023-04-25T05:06:30.516Z,8.07
2023-04-25T05:11:46.929Z,11.27
2023-04-25T05:17:06.930Z,9.98
2023-04-25T05:22:09.532Z,9.23
2023-04-25T05:27:30.562Z,12.05
2023-04-25T05:32:59.673Z,12.43
2023-04-25T05:38:00.668Z,10.45
2023-04-25T05:43:24.104Z,7.95
2023-04-25T05:48:30.440Z,10.80
2023-04-25T05:53:50.142Z,11.50
2023-04-25T05:58:52.423Z,12.25
2023-04-25T06:03:52.048Z,10.27
2023-04-25T06:08:49.998Z,11.65
2023-04-25T06:13:47.120Z,10.68
2023-04-25T06:18:47.481Z,15.63
2023-04-25T06:23:50.623Z,16.77
2023-04-25T06:28:57.460Z,14.52
2023-04-25T06:33:55.703Z,15.82
2023-04-25T06:38:55.278Z,14.05
2023-04-25T06:43:55.005Z,20.90
2023-04-25T06:49:21.991Z,21.60
2023-04-25T06:54:19.267Z,22.88
2023-04-25T06:59:27.793Z,20.95
2023-04-25T07:04:26.431Z,16.27
2023-04-25T07:09:26.834Z,15.15
2023-04-25T07:14:25.753Z,15.27
2023-04-25T07:19:27.064Z,12.90
2023-04-25T07:24:33.254Z,17.95
2023-04-25T07:29:36.278Z,12.52
2023-04-25T07:34:33.250Z,13.70
2023-04-25T07:39:33.728Z,14.00
2023-04-25T07:44:38.778Z,15.13
2023-04-25T07:49:37.999Z,13.40
2023-04-25T07:54:36.105Z,12.18
2023-04-25T07:59:42.004Z,9.90
2023-04-25T08:04:39.092Z,10.75
2023-04-25T08:09:40.363Z,11.68
2023-04-25T08:14:42.879Z,8.68
2023-04-25T08:19:39.991Z,9.55
2023-04-25T08:24:39.881Z,9.52
2023-04-25T08:29:38.919Z,9.13
2023-04-25T08:34:37.372Z,8.73
2023-04-25T08:39:34.797Z,10.25
2023-04-25T08:44:54.354Z,8.57
2023-04-25T08:49:55.182Z,7.95
2023-04-25T08:54:55.255Z,8.25
2023-04-25T08:59:55.359Z,8.38
2023-04-25T09:04:55.968Z,9.40
2023-04-25T09:09:53.593Z,9.43
2023-04-25T09:15:19.672Z,9.05
2023-04-25T09:21:00.853Z,8.60
2023-04-25T09:26:01.018Z,8.27
2023-04-25T09:30:59.661Z,7.00
2023-04-25T09:36:11.766Z,6.40
2023-04-25T09:41:25.035Z,6.72
2023-04-25T09:46:25.785Z,5.55
2023-04-25T09:51:27.712Z,5.47
2023-04-25T09:56:28.697Z,5.40
2023-04-25T10:01:27.549Z,5.30
2023-04-25T10:06:43.446Z,11.30
2023-04-25T10:11:43.748Z,5.93
2023-04-25T10:16:45.572Z,7.00
2023-04-25T10:21:50.912Z,8.98
2023-04-25T10:26:48.732Z,3.55
2023-04-25T10:31:47.686Z,2.85
2023-04-25T10:36:50.780Z,5.57
2023-04-25T10:41:48.823Z,2.63
2023-04-25T10:46:46.590Z,2.90
2023-04-25T10:51:54.944Z,4.00
2023-04-25T10:56:53.581Z,3.35
2023-04-25T11:01:53.514Z,4.38
2023-04-25T11:07:11.560Z,2.60
2023-04-25T11:12:11.855Z,2.25
2023-04-25T11:17:11.503Z,3.15
2023-04-25T11:22:14.776Z,4.70
2023-04-25T11:27:11.626Z,7.87
2023-04-25T11:32:09.884Z,5.03
2023-04-25T11:37:07.081Z,4.40
2023-04-25T11:42:08.143Z,5.45
2023-04-25T11:47:10.326Z,7.57
2023-04-25T11:52:08.422Z,4.40
2023-04-25T11:57:05.609Z,4.05
2023-04-25T12:02:02.771Z,3.42
2023-04-25T12:07:02.161Z,4.68
2023-04-25T12:12:03.056Z,10.68
2023-04-25T12:17:01.279Z,3.95
2023-04-25T12:21:59.457Z,3.50
2023-04-25T12:27:01.896Z,4.78
2023-04-25T12:32:00.281Z,6.50
2023-04-25T12:36:57.459Z,3.50
2023-04-25T12:41:54.535Z,4.30
2023-04-25T12:46:52.433Z,4.18
2023-04-25T12:51:49.643Z,2.80
2023-04-25T12:56:47.751Z,2.03
2023-04-25T13:01:45.845Z,4.13
2023-04-25T13:06:45.265Z,4.13
2023-04-25T13:11:42.308Z,4.55
2023-04-25T13:16:39.533Z,2.67
2023-04-25T13:21:36.435Z,2.65
2023-04-25T13:26:34.218Z,3.88
2023-04-25T13:31:32.037Z,4.85
2023-04-25T13:36:29.337Z,2.15
2023-04-25T13:41:26.349Z,2.70
2023-04-25T13:46:44.704Z,4.18
2023-04-25T13:51:46.403Z,4.30
2023-04-25T13:56:43.420Z,3.42
2023-04-25T14:01:41.411Z,4.43
2023-04-25T14:06:38.331Z,2.72
2023-04-25T14:11:36.810Z,3.17
2023-04-25T14:16:36.924Z,2.78
2023-04-25T14:21:34.727Z,4.03
2023-04-25T14:26:31.757Z,3.70
2023-04-25T14:31:40.071Z,9.77
2023-04-25T14:36:48.664Z,5.13
2023-04-25T14:41:45.633Z,4.22
2023-04-25T14:46:43.077Z,3.42
2023-04-25T14:51:41.024Z,5.38
2023-04-25T14:56:39.669Z,5.40
2023-04-25T15:01:36.805Z,3.50
2023-04-25T15:06:34.630Z,9.80
2023-04-25T15:11:31.866Z,10.48
2023-04-25T15:16:31.240Z,9.02
2023-04-25T15:21:31.797Z,4.75
2023-04-25T15:26:29.002Z,6.07
2023-04-25T15:31:27.407Z,5.72
2023-04-25T15:36:25.924Z,3.33
2023-04-25T15:41:22.779Z,4.65
2023-04-25T15:46:20.666Z,5.90
2023-04-25T15:51:18.857Z,4.78
2023-04-25T15:56:16.421Z,4.15
2023-04-25T16:01:13.692Z,4.57
2023-04-25T16:06:10.576Z,5.50
2023-04-25T16:11:08.031Z,4.68
2023-04-25T16:16:15.807Z,4.53
2023-04-25T16:21:17.057Z,9.05
2023-04-25T16:26:14.152Z,6.05
2023-04-25T16:31:14.739Z,4.00
2023-04-25T16:36:12.461Z,3.80
2023-04-25T16:41:10.392Z,4.90
2023-04-25T16:46:07.447Z,4.65
2023-04-25T16:51:05.289Z,4.78
2023-04-25T16:56:02.610Z,7.60
2023-04-25T17:00:59.555Z,8.27
2023-04-25T17:05:56.859Z,4.85
2023-04-25T17:10:54.477Z,4.18
2023-04-25T17:15:51.389Z,5.75
2023-04-25T17:20:48.325Z,7.25
2023-04-25T17:25:45.139Z,3.35
2023-04-25T17:30:42.845Z,2.92
2023-04-25T17:35:39.978Z,4.38
2023-04-25T17:40:36.883Z,5.25
2023-04-25T17:45:41.178Z,5.60
2023-04-25T17:50:39.120Z,3.30
2023-04-25T17:55:35.960Z,4.15
2023-04-25T18:00:33.820Z,4.20
2023-04-25T18:05:32.049Z,4.63
2023-04-25T18:10:29.618Z,4.38
2023-04-25T18:15:26.489Z,7.30
2023-04-25T18:20:23.524Z,8.52
2023-04-25T18:25:20.644Z,6.28
2023-04-25T18:30:18.489Z,5.68
2023-04-25T18:35:17.346Z,8.18
2023-04-25T18:40:15.753Z,8.60
2023-04-25T18:45:14.083Z,14.45
2023-04-25T18:50:12.266Z,8.57
2023-04-25T18:55:12.338Z,9.27
2023-04-25T19:00:10.629Z,8.43
2023-04-25T19:05:10.550Z,14.48
2023-04-25T19:10:09.513Z,8.07
2023-04-25T19:15:09.147Z,9.15
2023-04-25T19:20:07.652Z,6.82
2023-04-25T19:30:08.164Z,7.88
2023-04-25T19:35:05.744Z,8.07
2023-04-25T19:40:04.191Z,7.75
2023-04-25T19:45:01.805Z,6.60
2023-04-25T19:49:59.388Z,7.30
2023-04-25T19:54:57.635Z,8.10
2023-04-25T19:59:54.454Z,5.15
2023-04-25T20:04:51.419Z,6.22
2023-04-25T20:09:49.500Z,6.53
2023-04-25T20:14:46.446Z,3.85
2023-04-25T20:19:43.302Z,3.30
2023-04-25T20:24:40.310Z,6.55
2023-04-25T20:29:37.990Z,5.93
2023-04-25T20:34:34.824Z,5.18
2023-04-25T20:39:32.666Z,4.85
2023-04-25T20:44:29.881Z,3.97
2023-04-25T20:49:27.243Z,5.97
2023-04-25T20:54:26.356Z,4.00
2023-04-25T20:59:23.308Z,5.97
2023-04-25T21:04:20.446Z,6.65
2023-04-25T21:09:18.045Z,4.97
2023-04-25T21:14:15.927Z,7.72
2023-04-25T21:19:12.946Z,6.57
2023-04-25T21:24:11.012Z,6.38
2023-04-25T21:29:08.847Z,5.07
2023-04-25T21:34:06.498Z,7.10
2023-04-25T21:39:06.688Z,4.63
2023-04-25T21:44:03.988Z,5.57
2023-04-25T21:49:01.656Z,6.05
2023-04-25T21:54:00.533Z,7.47
2023-04-25T21:58:57.446Z,4.85
2023-04-25T22:03:54.572Z,6.68
2023-04-25T22:08:52.593Z,4.57
2023-04-25T22:13:50.345Z,5.90
2023-04-25T22:18:47.830Z,6.88
2023-04-25T22:23:44.751Z,5.18
2023-04-25T22:28:42.536Z,9.30
2023-04-25T22:33:39.558Z,6.57
2023-04-25T22:38:38.204Z,5.40
2023-04-25T22:43:35.135Z,7.13
2023-04-25T22:48:32.590Z,5.50
2023-04-25T22:53:30.508Z,6.00
2023-04-25T22:58:27.261Z,7.78
2023-04-25T23:03:24.112Z,7.15
2023-04-25T23:08:21.625Z,7.40
2023-04-25T23:13:18.389Z,7.50
2023-04-25T23:18:15.269Z,7.75
2023-04-25T23:23:12.047Z,5.45
2023-04-25T23:28:09.501Z,7.78
2023-04-25T23:33:06.320Z,6.00
2023-04-25T23:38:03.177Z,8.93
2023-04-25T23:43:01.630Z,6.22
2023-04-25T23:47:59.199Z,7.13
2023-04-25T23:52:55.965Z,6.80
2023-04-25T23:57:53.019Z,6.13
